createdAt,value
2018-07-16T00:00:24.216Z,41.50
2018-07-16T00:02:52.784Z,41.50
2018-07-16T00:05:21.168Z,41.50
2018-07-16T00:07:49.523Z,41.50
2018-07-16T00:10:17.893Z,41.40
2018-07-16T00:12:46.275Z,41.30
2018-07-16T00:15:14.679Z,41.20
2018-07-16T00:17:43.057Z,41.20
2018-07-16T00:20:11.527Z,41.10
2018-07-16T00:22:39.944Z,41.10
2018-07-16T00:25:08.336Z,41.10
2018-07-16T00:27:36.751Z,41.10
2018-07-16T00:30:05.576Z,41.00
2018-07-16T00:32:33.993Z,40.90
2018-07-16T00:35:02.385Z,41.00
2018-07-16T00:37:30.734Z,40.90
2018-07-16T00:39:59.153Z,40.80
2018-07-16T00:42:27.660Z,40.80
2018-07-16T00:44:56.105Z,40.70
2018-07-16T00:47:24.528Z,40.70
2018-07-16T00:52:21.080Z,40.70
2018-07-16T00:57:17.665Z,40.60
2018-07-16T00:59:46.013Z,40.50
2018-07-16T01:04:42.486Z,40.40
2018-07-16T01:07:10.854Z,40.30
2018-07-16T01:09:39.377Z,40.20
2018-07-16T01:12:07.885Z,40.10
2018-07-16T01:14:36.249Z,40.00
2018-07-16T01:17:04.678Z,39.90
2018-07-16T01:19:33.035Z,39.70
2018-07-16T01:22:01.935Z,39.70
2018-07-16T01:24:30.293Z,39.60
2018-07-16T01:26:58.659Z,39.60
2018-07-16T01:29:27.028Z,39.40
2018-07-16T01:31:55.565Z,39.20
2018-07-16T01:34:23.981Z,39.00
2018-07-16T01:36:52.350Z,38.90
2018-07-16T01:39:20.780Z,38.80
2018-07-16T01:41:49.170Z,38.80
2018-07-16T01:44:18.163Z,38.80
2018-07-16T01:46:46.589Z,38.70
2018-07-16T01:49:15.176Z,38.60
2018-07-16T01:51:43.633Z,38.60
2018-07-16T01:54:12.056Z,38.60
2018-07-16T01:56:40.421Z,38.60
2018-07-16T01:59:08.865Z,38.60
2018-07-16T02:01:38.491Z,38.70
2018-07-16T02:04:06.948Z,38.70
2018-07-16T02:09:04.155Z,38.60
2018-07-16T02:11:32.532Z,38.50
2018-07-16T02:14:00.967Z,38.50
2018-07-16T02:16:29.332Z,38.50
2018-07-16T02:18:57.775Z,38.40
2018-07-16T02:21:26.264Z,38.40
2018-07-16T02:23:54.627Z,38.30
2018-07-16T02:26:23.001Z,38.30
2018-07-16T02:28:51.556Z,38.20
2018-07-16T02:31:19.943Z,38.20
2018-07-16T02:36:16.484Z,38.30
2018-07-16T02:38:45.061Z,38.30
2018-07-16T02:41:13.504Z,38.30
2018-07-16T02:43:41.854Z,38.30
2018-07-16T02:46:10.222Z,38.10
2018-07-16T02:48:38.595Z,38.10
2018-07-16T02:51:07.019Z,38.00
2018-07-16T02:53:35.648Z,38.00
2018-07-16T02:56:04.111Z,37.90
2018-07-16T02:58:32.509Z,37.90
2018-07-16T03:01:00.901Z,37.90
2018-07-16T03:03:29.472Z,37.80
2018-07-16T03:05:57.863Z,37.90
2018-07-16T03:10:54.339Z,37.90
2018-07-16T03:13:22.716Z,37.90
2018-07-16T03:15:51.068Z,37.90
2018-07-16T03:18:19.531Z,37.90
2018-07-16T03:20:47.879Z,37.90
2018-07-16T03:23:16.306Z,37.60
2018-07-16T03:25:44.816Z,37.90
2018-07-16T03:28:13.285Z,38.60
2018-07-16T03:30:41.698Z,37.90
2018-07-16T03:33:10.096Z,37.80
2018-07-16T03:35:38.497Z,37.90
2018-07-16T03:38:06.867Z,37.80
2018-07-16T03:40:35.275Z,37.80
2018-07-16T03:45:31.875Z,37.90
2018-07-16T03:48:00.303Z,37.80
2018-07-16T03:50:28.616Z,37.80
2018-07-16T03:52:57.096Z,37.90
2018-07-16T03:55:25.667Z,37.80
2018-07-16T03:57:54.084Z,37.80
2018-07-16T04:00:22.444Z,37.80
2018-07-16T04:02:50.817Z,37.80
2018-07-16T04:05:19.354Z,37.90
2018-07-16T04:07:54.352Z,37.90
2018-07-16T04:10:22.764Z,37.90
2018-07-16T04:12:51.165Z,37.90
2018-07-16T04:15:19.629Z,37.90
2018-07-16T04:17:48.205Z,38.00
2018-07-16T04:20:16.583Z,38.00
2018-07-16T04:22:44.952Z,38.00
2018-07-16T04:25:13.340Z,38.40
2018-07-16T04:27:41.701Z,38.00
2018-07-16T04:30:10.072Z,38.00
2018-07-16T04:32:38.447Z,37.90
2018-07-16T04:35:06.814Z,37.70
2018-07-16T04:37:35.333Z,37.20
2018-07-16T04:40:03.796Z,36.60
2018-07-16T04:42:32.175Z,36.00
2018-07-16T04:45:00.544Z,35.30
2018-07-16T04:47:29.011Z,34.40
2018-07-16T04:49:58.075Z,33.80
2018-07-16T04:52:26.565Z,33.20
2018-07-16T04:54:54.932Z,32.70
2018-07-16T04:57:23.304Z,32.60
2018-07-16T04:59:51.779Z,32.80
2018-07-16T05:02:20.215Z,33.20
2018-07-16T05:04:49.120Z,33.50
2018-07-16T05:07:17.492Z,33.80
2018-07-16T05:09:45.872Z,34.20
2018-07-16T05:12:14.235Z,34.50
2018-07-16T05:14:42.660Z,34.80
2018-07-16T05:17:11.092Z,35.00
2018-07-16T05:19:40.763Z,35.80
2018-07-16T05:22:09.146Z,35.20
2018-07-16T05:24:37.555Z,35.20
2018-07-16T05:27:06.059Z,35.60
2018-07-16T05:29:34.443Z,35.60
2018-07-16T05:32:02.876Z,35.70
2018-07-16T05:34:31.337Z,35.70
2018-07-16T05:36:59.805Z,36.40
2018-07-16T05:39:28.268Z,35.80
2018-07-16T05:41:56.640Z,35.80
2018-07-16T05:44:25.036Z,35.90
2018-07-16T05:46:53.556Z,36.30
2018-07-16T05:49:22.043Z,36.50
2018-07-16T05:51:50.518Z,36.90
2018-07-16T05:54:21.993Z,36.80
2018-07-16T05:56:50.360Z,37.00
2018-07-16T05:59:18.759Z,36.60
2018-07-16T06:01:47.804Z,36.70
2018-07-16T06:04:16.285Z,36.60
2018-07-16T06:06:44.676Z,37.30
2018-07-16T06:09:13.034Z,37.60
2018-07-16T06:11:41.825Z,37.90
2018-07-16T06:14:10.224Z,38.00
2018-07-16T06:16:38.631Z,38.60
2018-07-16T06:19:08.214Z,38.80
2018-07-16T06:21:36.736Z,39.10
2018-07-16T06:24:05.118Z,39.20
2018-07-16T06:26:33.531Z,38.70
2018-07-16T06:29:01.897Z,38.40
2018-07-16T06:31:30.276Z,38.40
2018-07-16T06:33:58.869Z,38.20
2018-07-16T06:36:27.257Z,37.70
2018-07-16T06:38:55.654Z,37.60
2018-07-16T06:41:24.320Z,37.50
2018-07-16T06:43:52.493Z,37.30
2018-07-16T06:46:20.996Z,37.00
2018-07-16T06:48:49.483Z,36.60
2018-07-16T06:51:17.979Z,36.20
2018-07-16T06:53:46.332Z,36.20
2018-07-16T06:56:15.092Z,36.20
2018-07-16T06:58:43.464Z,36.00
2018-07-16T07:01:12.011Z,36.00
2018-07-16T07:03:40.387Z,36.10
2018-07-16T07:06:08.774Z,36.00
2018-07-16T07:08:37.174Z,35.90
2018-07-16T07:11:06.637Z,36.10
2018-07-16T07:13:35.668Z,36.00
2018-07-16T07:16:04.292Z,36.00
2018-07-16T07:18:32.704Z,35.90
2018-07-16T07:21:01.409Z,35.90
2018-07-16T07:23:29.764Z,35.80
2018-07-16T07:25:58.141Z,35.80
2018-07-16T07:30:54.900Z,36.10
2018-07-16T07:33:23.995Z,35.90
2018-07-16T07:35:52.382Z,35.80
2018-07-16T07:38:20.801Z,35.70
2018-07-16T07:40:49.221Z,35.40
2018-07-16T07:43:17.777Z,35.60
2018-07-16T07:45:46.156Z,35.70
2018-07-16T07:48:14.753Z,35.80
2018-07-16T07:50:43.184Z,36.00
2018-07-16T07:53:11.808Z,36.10
2018-07-16T07:55:40.819Z,36.00
2018-07-16T07:58:09.224Z,35.90
2018-07-16T08:00:38.061Z,35.90
2018-07-16T08:03:06.430Z,35.60
2018-07-16T08:05:34.860Z,35.30
2018-07-16T08:08:03.305Z,35.50
2018-07-16T08:10:32.299Z,35.70
2018-07-16T08:13:00.700Z,35.20
2018-07-16T08:15:29.082Z,35.10
2018-07-16T08:20:26.301Z,34.90
2018-07-16T08:22:55.332Z,34.70
2018-07-16T08:25:23.749Z,34.30
2018-07-16T08:27:52.108Z,34.00
2018-07-16T08:30:20.985Z,34.10
2018-07-16T08:32:49.684Z,34.20
2018-07-16T08:35:18.132Z,34.30
2018-07-16T08:37:47.261Z,34.70
2018-07-16T08:40:15.629Z,34.70
2018-07-16T08:42:44.072Z,34.40
2018-07-16T08:45:12.526Z,34.20
2018-07-16T08:47:40.947Z,34.10
2018-07-16T08:50:09.498Z,33.90
2018-07-16T08:52:37.860Z,33.50
2018-07-16T08:55:07.200Z,33.70
2018-07-16T08:57:35.725Z,34.10
2018-07-16T09:00:04.078Z,34.20
2018-07-16T09:02:32.598Z,34.50
2018-07-16T09:05:01.021Z,34.20
2018-07-16T09:07:29.404Z,34.40
2018-07-16T09:09:57.928Z,34.40
2018-07-16T09:12:26.334Z,34.10
2018-07-16T09:14:54.761Z,34.10
2018-07-16T09:17:24.024Z,34.20
2018-07-16T09:19:52.457Z,34.30
2018-07-16T09:22:21.722Z,34.70
2018-07-16T09:24:50.395Z,34.90
2018-07-16T09:27:19.011Z,34.80
2018-07-16T09:29:48.016Z,34.60
2018-07-16T09:32:17.281Z,34.40
2018-07-16T09:34:45.654Z,34.20
2018-07-16T09:37:14.600Z,34.10
2018-07-16T09:39:43.683Z,33.70
2018-07-16T09:42:12.105Z,33.50
2018-07-16T09:44:40.509Z,33.50
2018-07-16T09:47:08.948Z,33.50
2018-07-16T09:49:37.409Z,33.50
2018-07-16T09:52:06.152Z,33.80
2018-07-16T09:54:34.511Z,33.90
2018-07-16T09:57:02.877Z,34.10
2018-07-16T09:59:31.368Z,33.60
2018-07-16T10:02:05.209Z,33.00
2018-07-16T10:04:33.706Z,33.00
2018-07-16T10:07:02.176Z,33.40
2018-07-16T10:09:30.760Z,33.50
2018-07-16T10:11:59.172Z,33.50
2018-07-16T10:14:27.554Z,33.30
2018-07-16T10:16:56.048Z,33.30
2018-07-16T10:19:24.409Z,32.50
2018-07-16T10:21:52.804Z,32.70
2018-07-16T10:24:21.244Z,32.90
2018-07-16T10:26:50.397Z,33.10
2018-07-16T10:29:18.796Z,33.10
2018-07-16T10:31:47.361Z,32.90
2018-07-16T10:34:16.328Z,32.60
2018-07-16T10:36:44.684Z,32.60
2018-07-16T10:39:13.059Z,32.60
2018-07-16T10:41:41.490Z,32.20
2018-07-16T10:44:10.623Z,31.80
2018-07-16T10:46:39.001Z,31.70
2018-07-16T10:49:08.044Z,31.60
2018-07-16T10:51:36.497Z,31.40
2018-07-16T10:54:05.068Z,31.60
2018-07-16T10:56:33.532Z,31.80
2018-07-16T10:59:02.077Z,31.90
2018-07-16T11:01:30.539Z,31.60
2018-07-16T11:03:58.949Z,32.00
2018-07-16T11:06:27.350Z,32.10
2018-07-16T11:08:55.880Z,31.90
2018-07-16T11:11:24.291Z,32.00
2018-07-16T11:13:52.882Z,31.80
2018-07-16T11:16:21.945Z,31.90
2018-07-16T11:18:50.368Z,31.80
2018-07-16T11:21:18.785Z,31.80
2018-07-16T11:23:47.225Z,32.00
2018-07-16T11:26:15.670Z,33.00
2018-07-16T11:28:44.112Z,32.40
2018-07-16T11:31:12.548Z,32.40
2018-07-16T11:33:40.928Z,32.10
2018-07-16T11:36:09.449Z,32.00
2018-07-16T11:38:38.981Z,32.00
2018-07-16T11:41:08.097Z,32.00
2018-07-16T11:43:36.876Z,32.10
2018-07-16T11:46:05.501Z,32.10
2018-07-16T11:48:34.063Z,32.70
2018-07-16T11:51:02.540Z,31.60
2018-07-16T11:53:31.555Z,31.70
2018-07-16T11:55:59.952Z,32.00
2018-07-16T11:58:28.448Z,32.20
2018-07-16T12:00:56.972Z,32.00
2018-07-16T12:03:25.452Z,32.10
2018-07-16T12:05:54.005Z,32.40
2018-07-16T12:08:22.545Z,32.60
2018-07-16T12:10:50.997Z,32.60
2018-07-16T12:13:19.552Z,32.40
2018-07-16T12:15:48.051Z,32.80
2018-07-16T12:18:16.420Z,31.90
2018-07-16T12:20:45.120Z,31.80
2018-07-16T12:23:13.529Z,31.50
2018-07-16T12:25:41.915Z,31.70
2018-07-16T12:28:10.283Z,31.90
2018-07-16T12:30:38.676Z,32.00
2018-07-16T12:33:07.228Z,32.20
2018-07-16T12:35:35.768Z,31.60
2018-07-16T12:38:04.144Z,31.00
2018-07-16T12:40:32.564Z,30.50
2018-07-16T12:45:29.900Z,30.30
2018-07-16T12:47:58.392Z,30.70
2018-07-16T12:50:26.992Z,30.00
2018-07-16T12:52:55.391Z,29.90
2018-07-16T12:57:52.093Z,30.10
2018-07-16T13:00:20.490Z,30.10
2018-07-16T13:02:48.895Z,30.10
2018-07-16T13:05:17.357Z,30.30
2018-07-16T13:07:45.832Z,30.40
2018-07-16T13:10:14.337Z,30.40
2018-07-16T13:12:42.871Z,30.60
2018-07-16T13:15:11.340Z,30.60
2018-07-16T13:17:39.836Z,30.80
2018-07-16T13:20:08.224Z,30.60
2018-07-16T13:22:36.624Z,30.20
2018-07-16T13:25:05.086Z,30.30
2018-07-16T13:27:33.604Z,30.30
2018-07-16T13:30:02.018Z,30.20
2018-07-16T13:32:30.443Z,30.40
2018-07-16T13:34:58.989Z,30.30
2018-07-16T13:37:27.384Z,30.30
2018-07-16T13:39:55.757Z,30.10
2018-07-16T13:42:24.158Z,30.00
2018-07-16T13:44:52.595Z,29.80
2018-07-16T13:47:21.120Z,29.70
2018-07-16T13:49:49.724Z,29.80
2018-07-16T13:52:18.160Z,29.70
2018-07-16T13:54:46.588Z,29.90
2018-07-16T13:57:15.056Z,29.90
2018-07-16T13:59:43.461Z,30.00
2018-07-16T14:02:11.850Z,30.00
2018-07-16T14:04:40.312Z,30.00
2018-07-16T14:07:08.679Z,30.00
2018-07-16T14:09:37.111Z,29.90
2018-07-16T14:12:05.480Z,29.70
2018-07-16T14:14:33.860Z,29.80
2018-07-16T14:17:02.309Z,29.90
2018-07-16T14:19:30.671Z,29.90
2018-07-16T14:21:59.048Z,29.90
2018-07-16T14:24:27.464Z,29.80
2018-07-16T14:26:56.334Z,29.70
2018-07-16T14:29:24.774Z,29.90
2018-07-16T14:31:53.135Z,29.90
2018-07-16T14:34:21.503Z,29.80
2018-07-16T14:36:49.915Z,29.70
2018-07-16T14:39:18.401Z,29.70
2018-07-16T14:44:14.992Z,29.60
2018-07-16T14:46:43.349Z,29.60
2018-07-16T14:49:11.931Z,29.70
2018-07-16T14:51:40.308Z,29.70
2018-07-16T14:54:08.752Z,29.70
2018-07-16T14:56:37.130Z,29.70
2018-07-16T14:59:05.553Z,29.60
2018-07-16T15:01:34.071Z,29.50
2018-07-16T15:04:02.497Z,29.60
2018-07-16T15:06:30.864Z,29.50
2018-07-16T15:08:59.502Z,29.40
2018-07-16T15:11:27.957Z,29.40
2018-07-16T15:13:56.470Z,30.00
2018-07-16T15:16:24.788Z,29.60
2018-07-16T15:18:53.168Z,29.60
2018-07-16T15:21:21.822Z,29.70
2018-07-16T15:23:50.038Z,29.70
2018-07-16T15:26:18.444Z,29.60
2018-07-16T15:28:46.848Z,29.50
2018-07-16T15:31:15.493Z,29.60
2018-07-16T15:33:43.936Z,29.60
2018-07-16T15:36:12.328Z,29.60
2018-07-16T15:38:40.785Z,29.50
2018-07-16T15:41:09.724Z,29.40
2018-07-16T15:43:38.136Z,29.40
2018-07-16T15:46:06.493Z,29.40
2018-07-16T15:48:35.041Z,29.40
2018-07-16T15:51:03.890Z,29.30
2018-07-16T15:53:32.302Z,30.00
2018-07-16T15:56:00.732Z,29.40
2018-07-16T15:58:29.152Z,29.40
2018-07-16T16:00:57.596Z,29.50
2018-07-16T16:03:26.033Z,29.50
2018-07-16T16:05:54.435Z,29.40
2018-07-16T16:08:22.965Z,29.50
2018-07-16T16:13:19.475Z,29.60
2018-07-16T16:15:47.899Z,29.50
2018-07-16T16:18:16.306Z,29.60
2018-07-16T16:20:45.401Z,29.60
2018-07-16T16:23:13.924Z,29.60
2018-07-16T16:25:42.424Z,29.60
2018-07-16T16:28:10.816Z,29.60
2018-07-16T16:30:39.230Z,29.70
2018-07-16T16:33:08.087Z,29.70
2018-07-16T16:35:36.766Z,29.80
2018-07-16T16:38:40.174Z,29.90
2018-07-16T16:41:08.819Z,30.50
2018-07-16T16:43:37.640Z,30.00
2018-07-16T16:46:06.428Z,30.00
2018-07-16T16:48:34.956Z,30.30
2018-07-16T16:51:03.469Z,30.40
2018-07-16T16:53:32.150Z,30.40
2018-07-16T16:56:01.749Z,30.30
2018-07-16T16:58:30.295Z,30.20
2018-07-16T17:00:58.722Z,30.20
2018-07-16T17:03:27.426Z,30.20
2018-07-16T17:05:55.976Z,30.30
2018-07-16T17:08:24.402Z,30.20
2018-07-16T17:10:52.920Z,30.20
2018-07-16T17:13:22.241Z,30.10
2018-07-16T17:15:53.305Z,30.20
2018-07-16T17:18:28.950Z,30.00
2018-07-16T17:20:57.428Z,30.00
2018-07-16T17:23:26.626Z,30.00
2018-07-16T17:25:55.653Z,29.90
2018-07-16T17:28:24.135Z,30.00
2018-07-16T17:30:53.124Z,30.00
2018-07-16T17:33:21.554Z,30.00
2018-07-16T17:35:49.971Z,30.50
2018-07-16T17:38:18.354Z,31.40
2018-07-16T17:40:46.889Z,31.60
2018-07-16T17:43:15.373Z,32.00
2018-07-16T17:45:43.876Z,31.40
2018-07-16T17:48:12.293Z,30.80
2018-07-16T17:50:40.756Z,30.50
2018-07-16T17:53:09.178Z,30.30
2018-07-16T17:55:37.602Z,30.70
2018-07-16T17:58:06.038Z,30.00
2018-07-16T18:00:34.586Z,30.20
2018-07-16T18:03:02.970Z,30.20
2018-07-16T18:05:47.485Z,30.20
2018-07-16T18:10:44.428Z,30.30
2018-07-16T18:13:12.932Z,30.70
2018-07-16T18:15:41.432Z,30.80
2018-07-16T18:18:09.948Z,30.80
2018-07-16T18:20:38.431Z,30.80
2018-07-16T18:23:07.284Z,30.80
2018-07-16T18:25:35.719Z,30.80
2018-07-16T18:28:06.466Z,30.80
2018-07-16T18:30:35.242Z,31.10
2018-07-16T18:33:03.801Z,31.20
2018-07-16T18:35:34.930Z,31.40
2018-07-16T18:38:04.785Z,31.10
2018-07-16T18:40:33.169Z,31.90
2018-07-16T18:43:01.983Z,31.20
2018-07-16T18:45:30.565Z,31.30
2018-07-16T18:47:58.930Z,31.00
2018-07-16T18:50:27.821Z,30.50
2018-07-16T18:53:32.097Z,30.20
2018-07-16T18:56:01.239Z,30.10
2018-07-16T18:58:29.602Z,30.10
2018-07-16T19:00:58.082Z,30.10
2018-07-16T19:03:26.631Z,30.30
2018-07-16T19:06:10.376Z,30.30
2018-07-16T19:08:40.489Z,30.50
2018-07-16T19:11:12.190Z,30.40
2018-07-16T19:13:47.404Z,30.50
2018-07-16T19:16:19.542Z,31.00
2018-07-16T19:18:48.471Z,30.70
2018-07-16T19:21:21.855Z,30.90
2018-07-16T19:23:50.433Z,30.80
2018-07-16T19:26:19.088Z,30.90
2018-07-16T19:28:47.564Z,30.90
2018-07-16T19:31:16.052Z,31.00
2018-07-16T19:34:04.421Z,31.20
2018-07-16T19:36:56.555Z,31.30
2018-07-16T19:39:25.825Z,31.70
2018-07-16T19:41:54.260Z,32.00
2018-07-16T19:44:25.311Z,32.40
2018-07-16T19:46:53.840Z,32.90
2018-07-16T19:49:22.284Z,33.40
2018-07-16T19:51:50.743Z,33.70
2018-07-16T19:54:19.177Z,33.90
2018-07-16T19:56:47.710Z,34.10
2018-07-16T20:01:44.284Z,34.50
2018-07-16T20:04:12.665Z,34.60
2018-07-16T20:06:41.131Z,34.70
2018-07-16T20:09:09.722Z,34.80
2018-07-16T20:11:38.105Z,34.90
2018-07-16T20:14:06.503Z,35.00
2018-07-16T20:16:39.733Z,35.10
2018-07-16T20:19:08.936Z,35.10
2018-07-16T20:21:37.376Z,35.30
2018-07-16T20:24:05.936Z,35.30
2018-07-16T20:26:34.380Z,35.40
2018-07-16T20:29:02.832Z,35.30
2018-07-16T20:31:31.378Z,35.30
2018-07-16T20:33:59.913Z,35.30
2018-07-16T20:36:28.407Z,35.30
2018-07-16T20:38:56.885Z,35.20
2018-07-16T20:41:25.339Z,35.40
2018-07-16T20:43:53.985Z,35.40
2018-07-16T20:46:22.467Z,35.40
2018-07-16T20:48:51.303Z,35.60
2018-07-16T20:51:20.017Z,35.60
2018-07-16T20:53:49.901Z,35.60
2018-07-16T20:56:18.310Z,35.70
2018-07-16T20:58:46.896Z,35.70
2018-07-16T21:01:15.917Z,35.80
2018-07-16T21:03:44.653Z,35.90
2018-07-16T21:06:13.120Z,36.00
2018-07-16T21:08:41.521Z,36.00
2018-07-16T21:13:39.406Z,36.10
2018-07-16T21:16:07.804Z,36.20
2018-07-16T21:21:04.494Z,36.40
2018-07-16T21:23:32.953Z,36.50
2018-07-16T21:26:02.424Z,36.70
2018-07-16T21:28:31.232Z,36.90
2018-07-16T21:30:59.714Z,37.40
2018-07-16T21:33:28.152Z,37.80
2018-07-16T21:35:56.631Z,38.40
2018-07-16T21:38:25.148Z,38.70
2018-07-16T21:40:53.694Z,38.90
2018-07-16T21:43:22.129Z,39.00
2018-07-16T21:45:50.610Z,39.00
2018-07-16T21:48:19.039Z,39.20
2018-07-16T21:50:47.913Z,39.20
2018-07-16T21:53:16.465Z,39.30
2018-07-16T21:55:45.000Z,39.40
2018-07-16T21:58:13.469Z,39.40
2018-07-16T22:00:41.952Z,39.20
2018-07-16T22:03:10.384Z,39.10
2018-07-16T22:05:38.746Z,38.90
2018-07-16T22:08:07.346Z,38.70
2018-07-16T22:10:35.858Z,38.50
2018-07-16T22:13:04.309Z,38.40
2018-07-16T22:15:32.824Z,38.20
2018-07-16T22:18:01.269Z,38.20
2018-07-16T22:20:30.396Z,38.10
2018-07-16T22:22:58.886Z,38.00
2018-07-16T22:25:27.572Z,37.80
2018-07-16T22:27:56.098Z,37.70
2018-07-16T22:30:29.054Z,37.70
2018-07-16T22:32:57.829Z,37.60
2018-07-16T22:35:26.284Z,37.50
2018-07-16T22:37:54.774Z,37.50
2018-07-16T22:40:23.198Z,37.50
2018-07-16T22:42:51.647Z,37.40
2018-07-16T22:45:20.094Z,37.30
2018-07-16T22:47:48.573Z,37.10
2018-07-16T22:50:17.003Z,37.00
2018-07-16T22:52:45.452Z,36.90
2018-07-16T22:55:13.864Z,37.60
2018-07-16T22:57:42.254Z,36.90
2018-07-16T23:00:10.743Z,36.80
2018-07-16T23:02:39.155Z,36.80
2018-07-16T23:05:07.523Z,36.80
2018-07-16T23:07:35.901Z,36.80
2018-07-16T23:10:04.356Z,36.70
2018-07-16T23:12:32.732Z,36.90
2018-07-16T23:15:01.087Z,36.70
2018-07-16T23:17:29.540Z,36.60
2018-07-16T23:19:57.930Z,36.60
2018-07-16T23:22:26.297Z,36.60
2018-07-16T23:24:54.656Z,36.50
2018-07-16T23:27:23.104Z,36.40
2018-07-16T23:29:51.500Z,37.10
2018-07-16T23:32:19.942Z,36.40
2018-07-16T23:34:48.376Z,36.50
2018-07-16T23:37:16.814Z,36.70
2018-07-16T23:39:46.102Z,36.70
2018-07-16T23:42:14.507Z,37.20
2018-07-16T23:44:42.942Z,37.40
2018-07-16T23:47:11.389Z,37.60
2018-07-16T23:49:39.817Z,38.50
2018-07-16T23:52:08.203Z,38.00
2018-07-16T23:54:37.224Z,38.20
2018-07-16T23:57:05.608Z,38.30
2018-07-16T23:59:34.008Z,38.40
